Time;durP1;ratioP1;P1;durP2;ratioP2;P2;SDS_P1;SDS_P2;PMS_P1;PMS_P2;Temp;Humidity;BMP_temperature;BMP_pressure;BME280_temperature;BME280_humidity;BME280_pressure;Samples;Min_cycle;Max_cycle;Signal;HPM_P1;HPM_P2
2023/03/17 00:00:12;;;;;;;4.00;2.30;;;9.60;66.70;;;;;;5076385;28;20063;-68
2023/03/17 00:02:41;;;;;;;3.00;2.03;;;9.60;66.90;;;;;;5078487;28;20024;-67
2023/03/17 00:05:23;;;;;;;2.80;1.83;;;9.60;67.00;;;;;;5083659;28;20021;-66
2023/03/17 00:07:50;;;;;;;3.42;2.08;;;9.60;66.90;;;;;;5076740;28;20036;-66
2023/03/17 00:10:20;;;;;;;2.70;1.95;;;9.60;66.90;;;;;;5078026;28;20486;-66
2023/03/17 00:12:45;;;;;;;2.92;2.15;;;9.60;66.90;;;;;;5083305;28;20440;-67
2023/03/17 00:15:13;;;;;;;3.20;1.95;;;9.60;67.00;;;;;;5082260;28;20028;-67
2023/03/17 00:17:40;;;;;;;3.65;1.90;;;9.50;67.10;;;;;;5079673;28;20039;-66
2023/03/17 00:20:09;;;;;;;2.30;1.70;;;9.50;67.10;;;;;;5080763;28;20081;-65
2023/03/17 00:22:35;;;;;;;1.92;1.73;;;9.50;67.20;;;;;;5077097;28;20089;-66
2023/03/17 00:25:00;;;;;;;2.10;1.70;;;9.50;67.10;;;;;;5078622;28;20042;-67
2023/03/17 00:27:27;;;;;;;4.07;1.80;;;9.60;67.20;;;;;;5078079;28;20016;-66
2023/03/17 00:29:52;;;;;;;3.17;1.95;;;9.50;67.10;;;;;;5079586;28;20370;-65
2023/03/17 00:32:20;;;;;;;2.40;2.00;;;9.50;67.70;;;;;;5081921;28;20024;-66
2023/03/17 00:34:46;;;;;;;3.15;2.00;;;9.40;67.10;;;;;;5080508;28;20019;-66
2023/03/17 00:37:12;;;;;;;2.83;2.10;;;9.40;67.30;;;;;;5078587;28;20036;-66
2023/03/17 00:39:38;;;;;;;2.53;1.80;;;9.40;67.40;;;;;;5080528;28;20029;-66
2023/03/17 00:42:05;;;;;;;3.33;2.03;;;9.30;67.50;;;;;;5083911;28;20557;-66
2023/03/17 00:44:32;;;;;;;2.30;1.80;;;9.30;67.50;;;;;;5083018;28;20393;-66
2023/03/17 00:46:58;;;;;;;2.47;1.90;;;9.30;67.60;;;;;;5083749;28;20033;-66
2023/03/17 00:49:24;;;;;;;2.83;1.80;;;9.40;67.50;;;;;;5082074;28;20051;-65
2023/03/17 00:51:50;;;;;;;2.78;1.77;;;9.40;67.50;;;;;;5078982;28;20748;-66
2023/03/17 00:54:19;;;;;;;1.92;1.60;;;9.30;67.40;;;;;;5082529;28;20051;-66
2023/03/17 00:56:46;;;;;;;3.20;2.40;;;9.40;67.50;;;;;;5078761;28;20020;-66
2023/03/17 00:59:38;;;;;;;5.57;2.38;;;9.30;67.40;;;;;;5077808;28;20115;-66
2023/03/17 01:02:04;;;;;;;3.73;2.33;;;9.30;67.50;;;;;;5079496;28;20029;-66
2023/03/17 01:04:29;;;;;;;3.00;2.05;;;9.30;67.50;;;;;;5076816;28;20038;-65
2023/03/17 01:06:57;;;;;;;2.45;1.70;;;9.30;67.40;;;;;;5081160;28;20020;-66
2023/03/17 01:09:25;;;;;;;2.10;1.65;;;9.30;67.40;;;;;;5081995;28;20489;-66
2023/03/17 01:11:51;;;;;;;2.35;1.85;;;9.30;67.40;;;;;;5080847;28;20016;-66
2023/03/17 01:14:17;;;;;;;2.33;1.80;;;9.40;67.40;;;;;;5078665;28;20116;-65
2023/03/17 01:16:43;;;;;;;3.92;2.03;;;9.40;67.40;;;;;;5079834;28;20095;-66
2023/03/17 01:19:11;;;;;;;1.90;1.60;;;9.40;67.30;;;;;;5080356;28;20081;-66
2023/03/17 01:21:37;;;;;;;3.65;2.05;;;9.30;67.20;;;;;;5079532;28;20390;-66
2023/03/17 01:24:03;;;;;;;2.95;1.75;;;9.30;67.30;;;;;;5077009;28;20028;-66
2023/03/17 01:26:29;;;;;;;2.40;1.90;;;9.30;67.30;;;;;;5081075;28;20032;-66
2023/03/17 01:28:55;;;;;;;2.08;1.70;;;9.30;67.40;;;;;;5075579;28;20024;-66
2023/03/17 01:31:22;;;;;;;2.92;2.03;;;9.30;67.30;;;;;;5077856;28;20024;-66
2023/03/17 01:33:47;;;;;;;3.17;1.90;;;9.40;67.30;;;;;;5079980;28;20059;-66
2023/03/17 01:36:14;;;;;;;1.90;1.58;;;9.30;67.20;;;;;;5079512;28;20029;-66
2023/03/17 01:38:40;;;;;;;2.90;1.60;;;9.40;67.20;;;;;;5078600;28;20024;-66
2023/03/17 01:41:06;;;;;;;1.73;1.50;;;9.40;67.20;;;;;;5080610;28;20039;-66
2023/03/17 01:43:32;;;;;;;3.47;1.80;;;9.40;67.20;;;;;;5079558;28;20599;-66
2023/03/17 01:46:15;;;;;;;2.53;1.60;;;9.40;67.20;;;;;;5079682;28;20119;-66
2023/03/17 01:48:45;;;;;;;2.53;1.80;;;9.40;67.20;;;;;;5076774;28;20107;-66
2023/03/17 01:51:31;;;;;;;2.88;1.65;;;9.30;67.20;;;;;;5077771;28;20016;-65
2023/03/17 01:53:58;;;;;;;2.42;1.90;;;9.30;67.30;;;;;;5077484;28;20077;-66
2023/03/17 01:56:24;;;;;;;2.83;1.60;;;9.40;67.30;;;;;;5078192;28;20017;-65
2023/03/17 01:58:53;;;;;;;2.55;1.90;;;9.30;67.20;;;;;;5080769;28;20074;-65
2023/03/17 02:01:22;;;;;;;2.10;1.60;;;9.30;67.20;;;;;;5078813;28;20034;-65
2023/03/17 02:03:48;;;;;;;2.63;1.42;;;9.30;67.40;;;;;;5080099;28;20024;-66
2023/03/17 02:06:13;;;;;;;2.05;1.70;;;9.30;67.40;;;;;;5077202;28;20085;-65
2023/03/17 02:08:39;;;;;;;2.20;1.42;;;9.30;67.50;;;;;;5074472;28;20387;-65
2023/03/17 02:11:05;;;;;;;2.28;1.50;;;9.30;67.40;;;;;;5077097;28;20470;-66
2023/03/17 02:13:31;;;;;;;2.22;1.50;;;9.20;67.40;;;;;;5080561;28;20020;-66
2023/03/17 02:15:57;;;;;;;1.38;1.27;;;9.20;67.50;;;;;;5077737;28;20022;-65
2023/03/17 02:18:23;;;;;;;2.58;1.80;;;9.20;67.50;;;;;;5083078;28;20021;-66
2023/03/17 02:20:48;;;;;;;1.75;1.48;;;9.20;67.50;;;;;;5079685;28;20028;-66
2023/03/17 02:23:17;;;;;;;2.28;1.60;;;9.20;67.60;;;;;;5079334;28;20024;-66
2023/03/17 02:25:44;;;;;;;3.20;2.10;;;9.20;67.60;;;;;;5078555;28;20035;-66
2023/03/17 02:28:15;;;;;;;2.78;1.75;;;9.10;67.60;;;;;;5078601;28;20432;-65
2023/03/17 02:30:41;;;;;;;1.77;1.50;;;9.10;67.70;;;;;;5077617;28;20134;-66
2023/03/17 02:33:11;;;;;;;3.35;1.50;;;9.10;67.70;;;;;;5078150;28;20035;-65
2023/03/17 02:35:37;;;;;;;2.10;1.70;;;9.00;67.70;;;;;;5080467;28;20024;-65
2023/03/17 02:38:03;;;;;;;2.03;1.58;;;9.10;67.80;;;;;;5076621;28;20028;-66
2023/03/17 02:40:29;;;;;;;2.50;1.75;;;9.00;67.70;;;;;;5076749;28;20026;-66
2023/03/17 02:42:55;;;;;;;3.20;1.90;;;9.00;67.70;;;;;;5075578;28;20478;-65
2023/03/17 02:45:21;;;;;;;2.42;1.70;;;9.00;68.10;;;;;;5074157;28;20028;-66
2023/03/17 02:47:48;;;;;;;3.25;1.80;;;9.00;67.70;;;;;;5081921;28;20038;-64
2023/03/17 02:50:21;;;;;;;1.90;1.70;;;9.00;67.70;;;;;;5080735;28;20062;-65
2023/03/17 02:52:46;;;;;;;3.15;1.65;;;9.00;67.70;;;;;;5079378;28;20024;-65
2023/03/17 02:55:13;;;;;;;2.33;1.73;;;9.00;67.70;;;;;;5080661;28;20029;-66
2023/03/17 02:57:38;;;;;;;3.90;1.75;;;9.00;67.70;;;;;;5075597;28;20111;-67
2023/03/17 03:00:05;;;;;;;3.47;1.95;;;9.00;67.70;;;;;;5080098;28;20095;-66
2023/03/17 03:02:30;;;;;;;3.00;1.83;;;9.00;67.80;;;;;;5074681;28;20081;-67
2023/03/17 03:04:56;;;;;;;3.78;2.05;;;9.00;67.80;;;;;;5077506;28;20032;-66
2023/03/17 03:07:21;;;;;;;4.57;2.10;;;8.90;67.80;;;;;;5080279;28;20721;-66
2023/03/17 03:09:47;;;;;;;2.50;2.00;;;9.00;67.90;;;;;;5075427;28;20024;-65
2023/03/17 03:12:13;;;;;;;2.00;1.65;;;9.00;67.80;;;;;;5073063;28;20025;-66
2023/03/17 03:14:38;;;;;;;2.90;2.10;;;9.00;67.70;;;;;;5073979;28;20028;-65
2023/03/17 03:17:04;;;;;;;2.45;1.55;;;9.00;67.80;;;;;;5076146;28;20071;-65
2023/03/17 03:19:30;;;;;;;2.15;1.95;;;9.00;67.80;;;;;;5073613;28;20060;-65
2023/03/17 03:21:55;;;;;;;2.58;1.92;;;8.90;67.80;;;;;;5072627;28;20032;-65
2023/03/17 03:24:21;;;;;;;2.40;1.60;;;9.00;67.80;;;;;;5078149;28;20020;-66
2023/03/17 03:26:47;;;;;;;2.42;1.55;;;9.00;67.80;;;;;;5081215;28;20117;-65
2023/03/17 03:29:12;;;;;;;2.00;1.50;;;9.00;67.80;;;;;;5080077;28;20102;-67
2023/03/17 03:31:38;;;;;;;2.45;1.60;;;9.00;67.80;;;;;;5079683;28;20066;-65
2023/03/17 03:34:04;;;;;;;1.55;1.30;;;9.00;67.70;;;;;;5080203;28;20048;-66
2023/03/17 03:36:29;;;;;;;2.50;1.70;;;9.00;67.70;;;;;;5078137;28;20486;-66
2023/03/17 03:38:55;;;;;;;4.10;1.80;;;9.10;67.70;;;;;;5078729;28;20020;-65
2023/03/17 03:41:21;;;;;;;1.63;1.52;;;9.10;67.60;;;;;;5078323;28;20351;-65
2023/03/17 03:43:47;;;;;;;4.35;1.80;;;9.10;67.40;;;;;;5083557;28;21861;-65
2023/03/17 03:46:12;;;;;;;2.55;1.88;;;9.10;67.40;;;;;;5084747;28;20024;-65
2023/03/17 03:48:38;;;;;;;1.63;1.33;;;9.20;67.40;;;;;;5083690;28;20020;-65
2023/03/17 03:51:03;;;;;;;2.53;1.80;;;9.20;67.50;;;;;;5082379;28;20457;-65
2023/03/17 03:53:30;;;;;;;3.40;1.60;;;9.20;67.40;;;;;;5083003;28;20134;-66
2023/03/17 03:55:55;;;;;;;3.05;1.75;;;9.20;67.40;;;;;;5080647;28;20028;-66
2023/03/17 03:58:21;;;;;;;2.47;1.80;;;9.20;67.40;;;;;;5081327;28;20095;-66
2023/03/17 04:00:47;;;;;;;3.13;2.00;;;9.20;67.50;;;;;;5081021;28;20156;-66
2023/03/17 04:03:13;;;;;;;2.47;2.08;;;9.10;67.40;;;;;;5079241;28;20033;-66
2023/03/17 04:05:39;;;;;;;3.55;2.10;;;9.20;67.60;;;;;;5080720;28;20032;-66
2023/03/17 04:08:05;;;;;;;3.25;1.80;;;9.10;67.50;;;;;;5078703;28;20035;-66
2023/03/17 04:10:31;;;;;;;2.80;1.73;;;9.10;67.60;;;;;;5081598;28;20103;-66
2023/03/17 04:12:57;;;;;;;3.03;1.92;;;9.10;67.60;;;;;;5076989;28;20059;-66
2023/03/17 04:15:23;;;;;;;2.47;1.73;;;9.10;67.80;;;;;;5080655;28;20035;-66
2023/03/17 04:17:48;;;;;;;2.30;1.80;;;9.10;67.70;;;;;;5076848;28;20490;-66
2023/03/17 04:20:15;;;;;;;2.10;1.50;;;9.10;67.60;;;;;;5079864;28;20036;-65
2023/03/17 04:22:41;;;;;;;2.67;1.70;;;9.20;67.60;;;;;;5080582;28;20875;-66
2023/03/17 04:25:09;;;;;;;3.78;1.77;;;9.20;67.50;;;;;;5082061;28;20506;-66
2023/03/17 04:27:35;;;;;;;2.92;1.90;;;9.20;67.40;;;;;;5076481;28;20119;-66
2023/03/17 04:30:00;;;;;;;2.92;1.98;;;9.20;67.40;;;;;;5077789;28;20721;-66
2023/03/17 04:32:26;;;;;;;2.30;1.50;;;9.20;67.40;;;;;;5082754;28;20029;-66
2023/03/17 04:34:52;;;;;;;2.75;1.70;;;9.20;67.40;;;;;;5079870;28;20031;-66
2023/03/17 04:37:17;;;;;;;2.13;1.70;;;9.10;67.30;;;;;;5080823;28;20028;-66
2023/03/17 04:39:43;;;;;;;2.42;1.67;;;9.10;67.40;;;;;;5079784;28;20055;-66
2023/03/17 04:42:09;;;;;;;1.52;1.38;;;9.10;67.40;;;;;;5082946;28;20103;-67
2023/03/17 04:44:35;;;;;;;4.53;1.70;;;9.10;67.50;;;;;;5080354;28;20065;-66
2023/03/17 04:47:01;;;;;;;2.17;1.60;;;9.10;67.50;;;;;;5078833;28;20542;-65
2023/03/17 04:49:27;;;;;;;2.80;1.75;;;9.10;67.50;;;;;;5080628;28;20034;-66
2023/03/17 04:51:52;;;;;;;2.58;1.70;;;9.10;67.50;;;;;;5079267;28;20112;-65
2023/03/17 04:54:18;;;;;;;2.60;1.55;;;9.00;67.50;;;;;;5077131;28;20033;-66
2023/03/17 04:56:43;;;;;;;2.25;1.60;;;9.00;67.50;;;;;;5082297;28;20024;-66
2023/03/17 04:59:09;;;;;;;6.07;2.00;;;9.10;67.60;;;;;;5083457;28;20020;-65
2023/03/17 05:01:35;;;;;;;3.28;2.00;;;9.00;67.50;;;;;;5079526;28;20086;-66
2023/03/17 05:04:01;;;;;;;2.63;1.70;;;9.00;67.50;;;;;;5076526;28;20489;-66
2023/03/17 05:06:26;;;;;;;3.70;2.00;;;9.00;67.50;;;;;;5077663;28;20024;-66
2023/03/17 05:08:52;;;;;;;2.58;1.90;;;9.00;67.50;;;;;;5079813;28;20067;-67
2023/03/17 05:11:18;;;;;;;3.70;1.85;;;9.00;67.50;;;;;;5083142;28;20039;-66
2023/03/17 05:13:44;;;;;;;3.97;2.15;;;9.00;67.50;;;;;;5081411;28;20071;-66
2023/03/17 05:16:10;;;;;;;3.25;1.92;;;9.00;67.40;;;;;;5080088;28;20475;-66
2023/03/17 05:18:36;;;;;;;2.65;1.45;;;9.00;67.40;;;;;;5081443;28;20024;-66
2023/03/17 05:21:03;;;;;;;1.70;1.50;;;9.00;67.40;;;;;;5080926;28;20537;-66
2023/03/17 05:23:29;;;;;;;2.45;1.80;;;9.10;67.50;;;;;;5081042;28;20027;-67
2023/03/17 05:25:55;;;;;;;1.85;1.50;;;9.00;67.40;;;;;;5079758;28;20028;-66
2023/03/17 05:28:20;;;;;;;2.60;1.90;;;9.00;67.40;;;;;;5084521;28;20028;-66
2023/03/17 05:30:47;;;;;;;3.75;1.88;;;9.10;67.40;;;;;;5078433;28;20451;-65
2023/03/17 05:33:13;;;;;;;2.78;1.98;;;9.00;67.40;;;;;;5080968;28;20055;-65
2023/03/17 05:35:39;;;;;;;2.92;1.67;;;9.00;67.40;;;;;;5076245;28;20111;-66
2023/03/17 05:38:05;;;;;;;2.60;1.50;;;9.00;67.50;;;;;;5079875;28;20107;-65
2023/03/17 05:40:31;;;;;;;1.95;1.40;;;9.00;67.50;;;;;;5079860;28;20363;-66
2023/03/17 05:42:57;;;;;;;3.13;1.65;;;9.00;67.60;;;;;;5076231;28;20034;-66
2023/03/17 05:45:23;;;;;;;2.05;1.70;;;9.00;67.50;;;;;;5080088;28;20032;-66
2023/03/17 05:47:48;;;;;;;2.65;1.70;;;9.00;67.60;;;;;;5079718;28;20393;-66
2023/03/17 05:50:14;;;;;;;1.75;1.50;;;9.00;67.60;;;;;;5076854;28;20024;-67
2023/03/17 05:52:40;;;;;;;1.90;1.50;;;9.00;67.70;;;;;;5082740;28;20069;-67
2023/03/17 05:55:06;;;;;;;2.28;1.55;;;9.00;67.80;;;;;;5077698;28;20103;-67
2023/03/17 05:57:32;;;;;;;2.10;1.52;;;8.90;67.70;;;;;;5081614;28;20440;-65
2023/03/17 05:59:57;;;;;;;2.05;1.60;;;8.90;68.40;;;;;;5079920;28;20024;-66
2023/03/17 06:02:24;;;;;;;3.30;1.60;;;8.90;67.80;;;;;;5075911;28;20028;-66
2023/03/17 06:04:49;;;;;;;2.30;1.42;;;8.90;67.90;;;;;;5083510;28;20050;-66
2023/03/17 06:07:16;;;;;;;2.40;1.48;;;8.90;67.90;;;;;;5075267;28;20042;-67
2023/03/17 06:09:42;;;;;;;2.70;1.50;;;8.90;67.90;;;;;;5077598;28;20116;-65
2023/03/17 06:12:08;;;;;;;2.08;1.60;;;8.80;67.90;;;;;;5078039;28;20028;-69
2023/03/17 06:14:35;;;;;;;2.80;1.80;;;8.90;68.00;;;;;;5079006;28;20032;-65
2023/03/17 06:17:00;;;;;;;2.00;1.70;;;8.90;67.90;;;;;;5078324;28;20115;-65
2023/03/17 06:19:26;;;;;;;2.50;1.70;;;8.90;68.00;;;;;;5075711;28;20131;-64
2023/03/17 06:21:51;;;;;;;5.90;1.60;;;8.90;68.70;;;;;;5078642;28;20467;-65
2023/03/17 06:24:17;;;;;;;1.95;1.40;;;8.90;67.90;;;;;;5082162;28;20040;-65
2023/03/17 06:26:42;;;;;;;2.97;1.65;;;8.90;67.90;;;;;;5078817;28;20093;-65
2023/03/17 06:29:08;;;;;;;1.95;1.48;;;8.90;67.90;;;;;;5075515;28;20390;-66
2023/03/17 06:31:36;;;;;;;1.98;1.60;;;8.90;68.00;;;;;;5075866;28;20127;-65
2023/03/17 06:34:02;;;;;;;3.08;1.80;;;8.90;68.00;;;;;;5080734;28;20050;-65
2023/03/17 06:36:28;;;;;;;3.28;2.00;;;8.90;68.00;;;;;;5076267;28;20029;-65
2023/03/17 06:38:54;;;;;;;2.60;2.00;;;8.80;68.00;;;;;;5077804;28;20452;-67
2023/03/17 06:41:19;;;;;;;3.33;2.10;;;8.80;68.20;;;;;;5077795;28;20028;-67
2023/03/17 06:43:45;;;;;;;2.42;1.80;;;8.80;68.20;;;;;;5080771;28;20110;-66
2023/03/17 06:46:11;;;;;;;2.53;2.00;;;8.80;68.20;;;;;;5075879;28;20051;-65
2023/03/17 06:48:37;;;;;;;3.40;1.80;;;8.90;68.20;;;;;;5079450;28;20052;-66
2023/03/17 06:51:03;;;;;;;2.85;1.80;;;9.00;68.10;;;;;;5084728;28;20024;-66
2023/03/17 06:53:28;;;;;;;3.63;2.00;;;9.10;67.90;;;;;;5076674;28;20023;-66
2023/03/17 06:55:55;;;;;;;5.05;2.47;;;9.10;67.80;;;;;;5082216;28;20095;-66
2023/03/17 06:58:20;;;;;;;5.88;2.10;;;9.20;68.10;;;;;;5077642;28;20032;-66
2023/03/17 07:00:47;;;;;;;2.65;2.00;;;9.30;67.40;;;;;;5076694;28;21772;-66
2023/03/17 07:03:16;;;;;;;2.75;1.92;;;9.40;67.20;;;;;;5083354;28;20058;-67
2023/03/17 07:05:42;;;;;;;2.45;1.80;;;9.40;67.00;;;;;;5075713;28;20066;-66
2023/03/17 07:08:08;;;;;;;2.70;2.00;;;9.50;66.90;;;;;;5076721;28;20052;-67
2023/03/17 07:10:35;;;;;;;6.10;2.80;;;9.50;66.80;;;;;;5079163;28;20028;-67
2023/03/17 07:13:01;;;;;;;3.53;2.17;;;9.60;66.80;;;;;;5078008;28;20039;-65
2023/03/17 07:15:27;;;;;;;3.17;2.05;;;9.70;66.70;;;;;;5086336;28;20253;-65
2023/03/17 07:17:53;;;;;;;3.38;2.13;;;9.80;66.50;;;;;;5081341;28;20032;-66
2023/03/17 07:20:19;;;;;;;3.53;2.28;;;9.80;66.40;;;;;;5081068;28;20574;-67
2023/03/17 07:22:44;;;;;;;5.82;2.60;;;9.90;66.20;;;;;;5080799;28;20028;-67
2023/03/17 07:25:10;;;;;;;3.42;2.00;;;10.00;66.10;;;;;;5083688;28;21208;-66
2023/03/17 07:27:35;;;;;;;4.13;2.45;;;10.00;66.10;;;;;;5079862;28;20432;-67
2023/03/17 07:30:03;;;;;;;3.03;2.28;;;10.00;65.90;;;;;;5084459;28;20017;-66
2023/03/17 07:32:30;;;;;;;5.63;2.70;;;10.10;65.90;;;;;;5087583;28;20428;-65
2023/03/17 07:34:56;;;;;;;4.57;2.90;;;10.20;65.90;;;;;;5079905;28;20635;-67
2023/03/17 07:37:22;;;;;;;6.85;3.15;;;10.20;65.70;;;;;;5092281;28;20051;-66
2023/03/17 07:39:47;;;;;;;5.57;2.78;;;10.20;65.60;;;;;;5085504;28;20638;-66
2023/03/17 07:42:14;;;;;;;3.00;2.17;;;10.30;65.50;;;;;;5082750;28;20024;-66
2023/03/17 07:44:40;;;;;;;6.68;3.00;;;10.40;65.50;;;;;;5086542;28;20085;-66
2023/03/17 07:47:07;;;;;;;4.55;2.35;;;10.40;65.30;;;;;;5078713;28;20047;-66
2023/03/17 07:49:32;;;;;;;4.25;2.47;;;10.50;65.40;;;;;;5088781;28;20027;-67
2023/03/17 07:51:58;;;;;;;3.75;2.00;;;10.60;65.30;;;;;;5090215;28;20025;-67
2023/03/17 07:54:25;;;;;;;3.55;2.20;;;10.60;65.10;;;;;;5084381;28;20027;-65
2023/03/17 07:56:51;;;;;;;6.13;2.20;;;10.60;65.00;;;;;;5087148;28;20056;-66
2023/03/17 07:59:17;;;;;;;3.03;2.13;;;10.60;65.30;;;;;;5082200;28;20052;-66
2023/03/17 08:01:43;;;;;;;3.22;2.08;;;10.70;65.30;;;;;;5084135;28;20029;-67
2023/03/17 08:04:11;;;;;;;3.15;2.30;;;10.70;65.20;;;;;;5082662;28;20039;-67
2023/03/17 08:06:39;;;;;;;3.75;2.33;;;10.80;65.30;;;;;;5089434;28;20032;-67
2023/03/17 08:09:05;;;;;;;4.18;2.40;;;10.80;65.20;;;;;;5082760;28;20092;-67
2023/03/17 08:11:30;;;;;;;2.90;2.20;;;10.80;65.30;;;;;;5084123;28;20122;-67
2023/03/17 08:13:56;;;;;;;2.90;2.08;;;10.80;65.10;;;;;;5082876;28;20018;-66
2023/03/17 08:16:22;;;;;;;5.78;2.47;;;10.90;65.20;;;;;;5081278;28;20209;-67
2023/03/17 08:18:47;;;;;;;3.65;2.08;;;10.90;64.90;;;;;;5081995;28;20111;-67
2023/03/17 08:21:13;;;;;;;3.30;2.20;;;11.00;65.10;;;;;;5086618;28;20341;-66
2023/03/17 08:23:39;;;;;;;2.10;1.90;;;11.10;65.00;;;;;;5079693;28;20032;-67
2023/03/17 08:26:05;;;;;;;2.97;2.05;;;11.20;64.80;;;;;;5085009;28;20042;-67
2023/03/17 08:28:31;;;;;;;3.03;2.10;;;11.20;64.70;;;;;;5085726;28;20855;-67
2023/03/17 08:31:13;;;;;;;4.32;2.50;;;11.30;64.50;;;;;;5078466;28;20805;-67
2023/03/17 08:33:41;;;;;;;4.57;3.00;;;11.40;64.50;;;;;;5083789;28;20020;-66
2023/03/17 08:36:08;;;;;;;2.65;2.05;;;11.40;64.30;;;;;;5081291;28;20016;-67
2023/03/17 08:38:39;;;;;;;3.70;1.88;;;11.40;64.20;;;;;;5081767;28;20052;-65
2023/03/17 08:41:07;;;;;;;4.18;2.85;;;11.60;64.30;;;;;;5079432;28;20032;-68
2023/03/17 08:43:34;;;;;;;4.93;2.55;;;11.60;63.70;;;;;;5085337;28;20032;-67
2023/03/17 08:46:07;;;;;;;2.83;2.10;;;11.60;64.00;;;;;;5084285;28;20120;-68
2023/03/17 08:48:35;;;;;;;3.97;2.00;;;11.70;64.00;;;;;;5086073;28;20073;-66
2023/03/17 08:51:01;;;;;;;3.08;2.10;;;11.70;64.10;;;;;;5082298;28;20020;-68
2023/03/17 08:53:26;;;;;;;2.80;1.80;;;11.80;64.10;;;;;;5086319;28;20032;-67
2023/03/17 08:55:55;;;;;;;4.88;2.67;;;11.90;64.10;;;;;;5084259;28;20100;-67
2023/03/17 08:58:21;;;;;;;3.33;2.00;;;12.00;63.80;;;;;;5084874;28;20029;-66
2023/03/17 09:00:47;;;;;;;4.85;2.97;;;12.00;63.70;;;;;;5083826;28;20325;-68
2023/03/17 09:03:14;;;;;;;4.85;3.10;;;12.10;63.70;;;;;;5082868;28;20042;-67
2023/03/17 09:05:41;;;;;;;4.13;2.20;;;12.10;63.50;;;;;;5078994;28;20035;-67
2023/03/17 09:08:08;;;;;;;5.28;2.70;;;12.20;63.60;;;;;;5090441;28;20031;-67
2023/03/17 09:10:34;;;;;;;4.57;2.53;;;12.30;63.60;;;;;;5101519;28;20027;-67
2023/03/17 09:13:02;;;;;;;3.90;2.13;;;12.30;63.30;;;;;;5096323;28;20024;-67
2023/03/17 09:15:29;;;;;;;3.20;2.22;;;12.40;63.30;;;;;;5096050;27;20016;-68
2023/03/17 09:17:56;;;;;;;2.65;2.00;;;12.50;63.00;;;;;;5089371;28;20026;-68
2023/03/17 09:20:22;;;;;;;3.13;1.83;;;12.60;63.30;;;;;;5095153;28;20024;-67
2023/03/17 09:22:48;;;;;;;3.20;2.00;;;12.70;63.20;;;;;;5092180;28;20043;-67
2023/03/17 09:25:15;;;;;;;4.38;2.30;;;12.70;62.80;;;;;;5099483;28;20560;-67
2023/03/17 09:27:40;;;;;;;5.63;2.22;;;12.70;62.50;;;;;;5098251;28;20043;-66
2023/03/17 09:30:09;;;;;;;4.15;2.20;;;12.80;62.40;;;;;;5095035;28;20028;-67
2023/03/17 09:32:35;;;;;;;5.47;2.28;;;12.90;62.40;;;;;;5097098;28;20031;-68
2023/03/17 09:35:00;;;;;;;4.78;2.72;;;13.00;61.80;;;;;;5100294;28;20024;-68
2023/03/17 09:37:26;;;;;;;3.90;2.08;;;13.10;62.00;;;;;;5094868;28;20105;-67
2023/03/17 09:39:52;;;;;;;3.05;2.13;;;13.20;62.10;;;;;;5097086;28;20032;-68
2023/03/17 09:42:40;;;;;;;4.75;2.30;;;13.20;61.90;;;;;;5096809;28;20098;-68
2023/03/17 09:45:06;;;;;;;4.32;2.60;;;13.20;61.80;;;;;;5088801;28;20036;-67
2023/03/17 09:47:53;;;;;;;7.47;2.78;;;13.30;61.60;;;;;;5100084;28;20035;-67
2023/03/17 09:50:25;;;;;;;3.67;2.25;;;13.30;61.60;;;;;;5087971;28;20024;-67
2023/03/17 09:52:53;;;;;;;4.88;2.72;;;13.40;61.50;;;;;;5095944;28;20055;-67
2023/03/17 09:55:27;;;;;;;5.72;2.30;;;13.40;61.50;;;;;;5089842;28;20020;-66
2023/03/17 09:57:55;;;;;;;7.32;3.10;;;13.50;61.50;;;;;;5098655;28;20052;-67
2023/03/17 10:00:26;;;;;;;4.38;2.22;;;13.50;61.20;;;;;;5098839;28;20027;-66
2023/03/17 10:02:52;;;;;;;4.10;2.13;;;13.70;61.20;;;;;;5098269;28;20393;-67
2023/03/17 10:05:21;;;;;;;3.97;2.38;;;13.90;61.20;;;;;;5094101;28;20046;-68
2023/03/17 10:08:19;;;;;;;6.32;3.20;;;13.90;60.50;;;;;;5095324;28;20035;-66
2023/03/17 10:11:00;;;;;;;4.22;2.90;;;14.00;59.80;;;;;;5088118;28;20124;-68
2023/03/17 10:13:32;;;;;;;4.18;2.70;;;14.10;59.60;;;;;;5092957;28;20032;-67
2023/03/17 10:16:02;;;;;;;4.18;2.50;;;14.20;59.50;;;;;;5091526;28;20115;-68
2023/03/17 10:18:39;;;;;;;4.40;2.30;;;14.30;59.50;;;;;;5087740;28;20028;-67
2023/03/17 10:21:06;;;;;;;3.70;2.58;;;14.40;59.50;;;;;;5088322;28;20032;-68
2023/03/17 10:23:34;;;;;;;3.30;2.20;;;14.50;59.10;;;;;;5092449;28;20024;-67
2023/03/17 10:26:12;;;;;;;3.35;2.30;;;14.50;59.10;;;;;;5087874;28;20070;-67
2023/03/17 10:28:38;;;;;;;2.83;2.20;;;14.70;59.30;;;;;;5083472;28;20086;-67
2023/03/17 10:31:20;;;;;;;4.55;2.70;;;14.80;59.30;;;;;;5087657;28;20027;-67
2023/03/17 10:33:53;;;;;;;5.97;3.20;;;14.80;58.70;;;;;;5084186;28;20490;-65
2023/03/17 10:36:35;;;;;;;5.60;2.92;;;14.80;58.20;;;;;;5088748;28;20386;-65
2023/03/17 10:39:06;;;;;;;3.42;2.47;;;14.80;58.00;;;;;;5079532;28;20036;-65
2023/03/17 10:41:35;;;;;;;4.67;2.60;;;14.90;58.40;;;;;;5082498;28;20046;-68
2023/03/17 10:44:00;;;;;;;5.05;2.47;;;15.00;58.40;;;;;;5085482;28;20032;-66
2023/03/17 10:46:28;;;;;;;3.05;2.03;;;15.10;58.60;;;;;;5085080;28;20311;-65
2023/03/17 10:49:05;;;;;;;3.45;1.95;;;15.20;58.70;;;;;;5079785;28;20055;-68
2023/03/17 10:51:34;;;;;;;3.47;2.10;;;15.20;58.60;;;;;;5082552;28;20028;-68
2023/03/17 10:54:06;;;;;;;3.25;2.03;;;15.20;58.30;;;;;;5084702;28;20093;-68
2023/03/17 10:56:35;;;;;;;3.67;2.47;;;15.30;58.50;;;;;;5083673;28;20516;-66
2023/03/17 10:59:07;;;;;;;4.22;2.67;;;15.30;58.10;;;;;;5081334;28;20499;-65
2023/03/17 11:01:38;;;;;;;;;;;15.40;58.10;;;;;;5083191;28;20013;-65
2023/03/17 11:04:29;;;;;;;2.90;1.90;;;15.50;58.10;;;;;;5082587;28;19908;-66
2023/03/17 11:06:57;;;;;;;6.55;3.13;;;15.70;58.20;;;;;;5079729;28;21066;-66
2023/03/17 11:09:24;;;;;;;5.97;3.05;;;15.70;57.40;;;;;;5086684;28;20020;-65
2023/03/17 11:12:19;;;;;;;3.75;2.70;;;15.70;57.30;;;;;;5087755;28;20028;-66
2023/03/17 11:14:48;;;;;;;2.55;2.10;;;15.80;57.60;;;;;;5080222;28;20155;-67
2023/03/17 11:17:57;;;;;;;6.18;3.00;;;15.90;57.70;;;;;;5085955;28;20082;-67
2023/03/17 11:20:29;;;;;;;3.63;2.50;;;16.00;57.30;;;;;;5076244;28;20044;-67
2023/03/17 11:23:21;;;;;;;3.45;2.10;;;16.10;57.30;;;;;;5085209;28;20024;-66
2023/03/17 11:25:52;;;;;;;4.22;2.22;;;16.20;57.40;;;;;;5086517;28;20032;-66
2023/03/17 11:28:25;;;;;;;4.67;2.87;;;16.30;57.40;;;;;;5089811;28;20028;-66
2023/03/17 11:31:16;;;;;;;3.63;2.42;;;16.30;56.90;;;;;;5084246;28;20024;-66
2023/03/17 11:33:52;;;;;;;3.70;2.30;;;16.40;57.10;;;;;;5083653;28;21071;-66
2023/03/17 11:36:36;;;;;;;5.90;2.88;;;16.40;57.20;;;;;;5088208;28;20028;-66
2023/03/17 11:39:10;;;;;;;2.67;2.08;;;16.40;57.00;;;;;;5086068;28;20417;-67
2023/03/17 11:42:06;;;;;;;4.97;2.63;;;16.40;57.30;;;;;;5084394;28;20023;-66
2023/03/17 11:44:56;;;;;;;2.25;1.80;;;16.40;57.30;;;;;;5084212;28;20368;-66
2023/03/17 11:47:26;;;;;;;2.25;1.65;;;16.50;57.70;;;;;;5081225;28;20089;-67
2023/03/17 11:50:11;;;;;;;3.58;2.10;;;16.50;57.70;;;;;;5084601;28;20059;-66
2023/03/17 11:52:59;;;;;;;4.75;2.60;;;16.50;57.70;;;;;;5082883;28;20031;-66
2023/03/17 11:55:35;;;;;;;4.95;3.10;;;16.60;57.50;;;;;;5071710;28;20040;-66
2023/03/17 11:58:10;;;;;;;4.63;2.55;;;16.50;57.30;;;;;;5081950;28;20103;-66
2023/03/17 12:00:44;;;;;;;4.43;2.50;;;16.70;57.70;;;;;;5088578;28;20093;-67
2023/03/17 12:03:16;;;;;;;3.08;2.20;;;16.70;57.50;;;;;;5084704;28;20028;-66
2023/03/17 12:05:46;;;;;;;4.20;2.50;;;16.80;57.50;;;;;;5085808;28;20032;-66
2023/03/17 12:08:36;;;;;;;3.00;1.90;;;16.90;57.50;;;;;;5083363;28;20087;-66
2023/03/17 12:11:09;;;;;;;2.78;2.20;;;17.00;57.60;;;;;;5081201;28;20035;-66
2023/03/17 12:13:45;;;;;;;3.58;2.35;;;17.10;57.60;;;;;;5082459;28;20043;-66
2023/03/17 12:16:25;;;;;;;6.03;3.00;;;17.20;57.40;;;;;;5086771;28;20021;-67
2023/03/17 12:19:15;;;;;;;4.15;2.28;;;17.30;56.80;;;;;;5091697;28;20027;-67
2023/03/17 12:21:59;;;;;;;3.60;2.15;;;17.40;57.00;;;;;;5084185;28;20028;-67
2023/03/17 12:24:24;;;;;;;4.00;2.65;;;17.50;57.00;;;;;;5085454;28;20155;-67
2023/03/17 12:26:56;;;;;;;8.23;3.20;;;17.60;56.60;;;;;;5089282;28;20435;-66
2023/03/17 12:29:42;;;;;;;4.03;2.63;;;17.50;56.10;;;;;;5089318;28;20028;-66
2023/03/17 12:32:38;;;;;;;3.70;2.47;;;17.50;56.40;;;;;;5084655;28;20394;-68
2023/03/17 12:35:30;;;;;;;3.05;1.85;;;17.60;56.50;;;;;;5088921;28;20028;-67
2023/03/17 12:37:58;;;;;;;2.97;1.70;;;17.80;56.60;;;;;;5080373;28;20020;-67
2023/03/17 12:40:39;;;;;;;3.28;2.10;;;17.90;56.60;;;;;;5089780;28;20055;-67
2023/03/17 12:43:35;;;;;;;3.47;2.13;;;18.00;56.40;;;;;;5086086;28;20036;-66
2023/03/17 12:46:31;;;;;;;3.33;1.80;;;18.00;56.50;;;;;;5085308;28;20039;-67
2023/03/17 12:49:00;;;;;;;2.45;1.67;;;18.10;56.60;;;;;;5088299;28;20062;-66
2023/03/17 12:51:28;;;;;;;2.90;1.60;;;18.20;56.40;;;;;;5087408;28;20440;-67
2023/03/17 12:53:54;;;;;;;3.42;1.85;;;18.30;56.60;;;;;;5090611;28;20024;-67
2023/03/17 12:56:35;;;;;;;3.58;1.98;;;18.40;56.40;;;;;;5086737;28;20033;-67
2023/03/17 12:59:07;;;;;;;2.50;1.98;;;18.50;56.10;;;;;;5090950;28;20036;-68
2023/03/17 13:01:38;;;;;;;2.42;1.63;;;18.50;56.10;;;;;;5083996;28;20016;-67